New Haven, IN (46774)

6:17 PM EDT on June 02, 2015 (GMT -0400)
Rivergreenway | | Change Station
CLOSE
Current Station
Personal Weather Station
Location: New Haven, IN
Elevation: 771 ft
Nearby Weather Stations

Elev 771 ft 41.09 °N, 85.02 °W | Updated 19 seconds ago

Mostly Cloudy
Mostly Cloudy
67.3 °F
Feels Like 67.3 °F
N
1.5
Wind Variable Wind from ENE
Gusts 8.0 mph

Today
High -- | Low -- °F
--% Chance of Precip.
Yesterday
High -- | Low -- °F
Precip. -- in
6:09 AM 9:06 PM
Full, 100% visible
Pressure 30.11 in
Visibility 10.0 miles
Clouds Mostly Cloudy 3900 ft
Dew Point 56 °F
Humidity 64%
Rainfall 0.00 in
Snow Depth Not available.
UV 2 out of 12
Pollen 9.20 out of 12
Air Quality Not available.
Flu Activity No Activity
METAR KFWA 022154Z 10007KT 10SM BKN039 19/12 A3011 RMK AO2 SLP196 T01940117

More Conditions Fewer Conditions

Pressure 30.11 in
Visibility 10.0 miles
Clouds Mostly Cloudy 3900 ft
Dew Point 56 °F
Humidity 64%
Rainfall 0.00 in
Snow Depth Not available.
UV 2 out of 12
Pollen 9.20 out of 12
Air Quality Not available.
Flu Activity No Activity
METAR KFWA 022154Z 10007KT 10SM BKN039 19/12 A3011 RMK AO2 SLP196 T01940117

More Conditions Fewer Conditions

10-Day Weather Forecast

×

Almanac

Astronomy

Jun. 02, 2015 Rise Set
Actual Time
Civil Twilight
Nautical Twilight
Astronomical Twilight
Moon
Length of Visible Light
Length of Day
Tomorrow will be .
, % of the Moon is Illuminated

Today's Extremes

State Highs State Lows

Community

WunderPhotos

Upload Photos

1,826,039 photos uploaded!

WunderBlogs® & News

Nearby

Air Quality

  Air Quality AQ Index Pollutant
Not available.

Snow Depth

Station Depth Elevation

Earthquake Activity

City Distance Mag. Time & Date
Minimum magnitude displayed is 2.5.

Coastal Water Temperatures

Place Temperature

Stations

Nearby Weather Stations

Station Location Temp. Windchill Dew Point Humidity Wind Precip. Elev Updated Type